Weather History for Metropolis, IL

Change the Weather History Date:

Sunday, February 23, 2014

  Actual Average (KPAH) Record (KPAH)
Temperature  
Mean Temperature 38 °F 42 °F  
Max Temperature 46 °F 52 °F 75 °F (1982)
Min Temperature 30 °F 32 °F 13 °F (1968)
Degree Days  
Heating Degree Days 27 23  
Month to date heating degree days 610  
Since 1 July heating degree days 3183  
Cooling Degree Days 0 0  
Month to date cooling degree days 0  
Year to date cooling degree days 0  
Moisture  
Dew Point 26 °F    
Average Humidity 61    
Maximum Humidity 81    
Minimum Humidity 41    
Precipitation  
Precipitation 0.00 in 0.14 in 1.68 in (1962)
Month to date precipitation 3.22  
Year to date precipitation 6.90  
Snow  
Snow 0.00 in 0.10 in 1.00 in (1966)
Month to date snowfall 2.8  
Since 1 July snowfall 8.1  
Snow Depth -    
Sea Level Pressure  
Sea Level Pressure 30.12 in    
Wind  
Wind Speed 7 mph (NNE)    
Max Wind Speed 18 mph    
Max Gust Speed 23 mph    
Visibility 10 miles    
Events      
T = Trace of Precipitation, MM = Missing Value Source: NWS Daily Summary

Daily Weather History Graph

Daily Weather History Graph

Search for Another Location

Airport:

Trip Planner

Search our weather history database for the weather conditions in past years. The results will help you decide how hot, cold, wet, or windy it might be!

Date:

Astronomy

Feb. 23, 2014 Rise Set
Actual Time 6:34 AM CST 5:43 PM CST
Civil Twilight 6:07 AM CST 6:09 PM CST
Nautical Twilight 5:37 AM CST 6:39 PM CST
Astronomical Twilight 5:07 AM CST 7:09 PM CST
Moon 1:28 AM CST (2/23) 11:49 AM CST (2/23)
Length of Visible Light 12h 01m
Length of Day
11h 09m
Last Quarter, 38% of the Moon is Illuminated
Feb 23
Last Quarter
Mar 1
New
Mar 8
First Quarter
Mar 16
Full
Mar 23
Last Quarter

Hourly Weather History & Observations

Time (CST) Temp. Windchill Dew Point Humidity Pressure Visibility Wind Dir Wind Speed Gust Speed Precip Events Conditions
12:15 AM 40.3 °F - 31.3 °F 70% 29.98 in 10.0 mi Calm Calm - N/A   Clear
12:35 AM 42.4 °F 36.5 °F 30.7 °F 63% 29.99 in 10.0 mi North 10.4 mph - N/A   Clear
12:55 AM 41.5 °F 38.6 °F 30.7 °F 65% 30.00 in 10.0 mi North 4.6 mph - N/A   Clear
1:15 AM 40.8 °F 36.9 °F 31.1 °F 68% 30.00 in 10.0 mi North 5.8 mph - N/A   Clear
1:35 AM 40.5 °F 37.3 °F 32.0 °F 72% 30.00 in 10.0 mi NNE 4.6 mph - N/A   Clear
1:55 AM 40.1 °F 38.0 °F 32.0 °F 73% 30.00 in 10.0 mi NNE 3.5 mph - N/A   Clear
2:15 AM 39.6 °F 35.4 °F 32.0 °F 74% 29.99 in 10.0 mi NE 5.8 mph - N/A   Clear
2:35 AM 39.7 °F 37.6 °F 31.6 °F 73% 29.99 in 10.0 mi NE 3.5 mph - N/A   Clear
2:55 AM 39.2 °F 35.9 °F 31.1 °F 73% 29.99 in 10.0 mi NE 4.6 mph - N/A   Clear
3:15 AM 38.7 °F 35.2 °F 30.9 °F 74% 29.98 in 10.0 mi NNE 4.6 mph - N/A   Clear
3:35 AM 38.5 °F 35.0 °F 30.6 °F 73% 29.97 in 10.0 mi ENE 4.6 mph - N/A   Clear
3:55 AM 38.1 °F 35.7 °F 30.2 °F 73% 29.96 in 10.0 mi ENE 3.5 mph - N/A   Clear
4:15 AM 36.7 °F 34.1 °F 29.8 °F 76% 29.96 in 10.0 mi ESE 3.5 mph - N/A   Clear
4:35 AM 36.9 °F - 29.8 °F 76% 29.97 in 10.0 mi Calm Calm - N/A   Clear
4:55 AM 36.9 °F - 29.5 °F 75% 29.98 in 10.0 mi Calm Calm - N/A   Clear
5:15 AM 35.6 °F - 29.7 °F 79% 29.99 in 10.0 mi Calm Calm - N/A   Clear
5:35 AM 36.5 °F 32.7 °F 29.3 °F 75% 30.00 in 10.0 mi North 4.6 mph - N/A   Clear
5:55 AM 36.5 °F 31.0 °F 29.3 °F 75% 30.01 in 10.0 mi North 6.9 mph - N/A   Clear
6:15 AM 36.0 °F 31.1 °F 29.3 °F 77% 30.03 in 10.0 mi North 5.8 mph - N/A   Clear
6:35 AM 36.1 °F 29.9 °F 29.3 °F 76% 30.04 in 10.0 mi North 8.1 mph - N/A   Clear
6:55 AM 36.1 °F 28.7 °F 29.7 °F 77% 30.05 in 10.0 mi North 10.4 mph - N/A   Clear
7:15 AM 36.9 °F 29.1 °F 30.4 °F 77% 30.07 in 10.0 mi North 11.5 mph 17.3 mph N/A   Clear
7:35 AM 37.4 °F 27.5 °F 31.1 °F 78% 30.08 in 10.0 mi North 18.4 mph 23.0 mph N/A   Scattered Clouds
7:55 AM 37.4 °F 28.9 °F 31.6 °F 80% 30.08 in 10.0 mi North 13.8 mph 20.7 mph N/A   Mostly Cloudy
8:15 AM 37.4 °F 28.9 °F 32.0 °F 81% 30.09 in 10.0 mi North 13.8 mph 20.7 mph N/A   Overcast
8:35 AM 38.1 °F 30.2 °F 32.0 °F 79% 30.10 in 10.0 mi North 12.7 mph 20.7 mph N/A   Overcast
8:55 AM 38.3 °F 30.1 °F 32.0 °F 78% 30.11 in 10.0 mi NNE 13.8 mph 21.9 mph N/A   Overcast
9:15 AM 37.8 °F 29.0 °F 30.4 °F 75% 30.11 in 10.0 mi NNE 15.0 mph 23.0 mph N/A   Overcast
9:35 AM 39.2 °F 32.0 °F 30.4 °F 71% 30.12 in 10.0 mi NNE 11.5 mph 21.9 mph N/A   Scattered Clouds
9:55 AM 41.0 °F 32.8 °F 30.2 °F 65% 30.11 in 10.0 mi NE 16.1 mph 19.6 mph N/A   Scattered Clouds
10:15 AM 41.4 °F 33.3 °F 30.0 °F 64% 30.11 in 10.0 mi NNE 16.1 mph 21.9 mph N/A   Clear
10:35 AM 42.4 °F 36.1 °F 30.6 °F 63% 30.11 in 10.0 mi NNE 11.5 mph 20.7 mph N/A   Scattered Clouds
10:55 AM 42.8 °F 35.8 °F 30.7 °F 62% 30.11 in 10.0 mi NNE 13.8 mph 18.4 mph N/A   Scattered Clouds
11:15 AM 44.4 °F 40.0 °F 31.1 °F 60% 30.12 in 10.0 mi NNE 8.1 mph 19.6 mph N/A   Scattered Clouds
11:35 AM 44.8 °F 38.0 °F 29.8 °F 56% 30.13 in 10.0 mi North 15.0 mph 19.6 mph N/A   Overcast
11:55 AM 45.0 °F 38.5 °F 29.7 °F 55% 30.11 in 10.0 mi North 13.8 mph 20.7 mph N/A   Overcast
12:15 PM 44.6 °F 38.4 °F 29.3 °F 55% 30.11 in 10.0 mi North 12.7 mph 18.4 mph N/A   Overcast
12:35 PM 44.2 °F 38.0 °F 28.6 °F 54% 30.11 in 10.0 mi NNE 12.7 mph 21.9 mph N/A   Mostly Cloudy
12:55 PM 45.5 °F 39.6 °F 29.8 °F 54% 30.11 in 10.0 mi North 12.7 mph 16.1 mph N/A   Mostly Cloudy
1:15 PM 45.5 °F 39.6 °F 29.7 °F 54% 30.11 in 10.0 mi North 12.7 mph 17.3 mph N/A   Mostly Cloudy
1:35 PM 45.3 °F 40.6 °F 29.5 °F 54% 30.12 in 10.0 mi North 9.2 mph - N/A   Mostly Cloudy
1:55 PM 45.0 °F 38.5 °F 29.3 °F 54% 30.12 in 10.0 mi North 13.8 mph 17.3 mph N/A   Overcast
2:15 PM 45.5 °F 41.3 °F 28.9 °F 52% 30.11 in 10.0 mi NNE 8.1 mph - N/A   Mostly Cloudy
2:35 PM 46.4 °F 40.7 °F 29.3 °F 51% 30.11 in 10.0 mi North 12.7 mph - N/A   Mostly Cloudy
2:55 PM 45.0 °F 38.9 °F 27.9 °F 51% 30.12 in 10.0 mi North 12.7 mph 17.3 mph N/A   Overcast
3:15 PM 43.5 °F 36.1 °F 25.7 °F 50% 30.12 in 10.0 mi North 16.1 mph - N/A   Overcast
3:35 PM 42.4 °F 35.3 °F 24.3 °F 49% 30.14 in 10.0 mi NNE 13.8 mph 19.6 mph N/A   Overcast
3:55 PM 43.5 °F 36.4 °F 23.2 °F 45% 30.15 in 10.0 mi North 15.0 mph - N/A   Mostly Cloudy
4:15 PM 43.0 °F 37.7 °F 22.3 °F 44% 30.16 in 10.0 mi North 9.2 mph - N/A   Scattered Clouds
4:35 PM 41.9 °F 35.9 °F 24.1 °F 49% 30.16 in 10.0 mi NNE 10.4 mph - N/A   Clear
4:55 PM 41.0 °F 35.2 °F 25.5 °F 54% 30.17 in 10.0 mi North 9.2 mph - N/A   Scattered Clouds
5:15 PM 40.3 °F 33.4 °F 23.5 °F 51% 30.18 in 10.0 mi North 11.5 mph - N/A   Scattered Clouds
5:35 PM 39.4 °F 33.2 °F 20.7 °F 47% 30.19 in 10.0 mi North 9.2 mph - N/A   Scattered Clouds
5:55 PM 38.3 °F 31.9 °F 20.1 °F 48% 30.19 in 10.0 mi NNE 9.2 mph - N/A   Clear
6:15 PM 36.7 °F 31.2 °F 21.2 °F 54% 30.20 in 10.0 mi NNE 6.9 mph - N/A   Clear
6:35 PM 36.5 °F 29.2 °F 18.7 °F 49% 30.21 in 10.0 mi NNE 10.4 mph 16.1 mph N/A   Clear
6:55 PM 35.6 °F 28.6 °F 17.4 °F 48% 30.22 in 10.0 mi NNE 9.2 mph - N/A   Clear
7:15 PM 35.1 °F 27.4 °F 13.5 °F 41% 30.23 in 10.0 mi North 10.4 mph - N/A   Clear
7:35 PM 34.2 °F 28.2 °F 14.5 °F 45% 30.24 in 10.0 mi North 6.9 mph - N/A   Clear
7:55 PM 33.8 °F 25.8 °F 15.4 °F 47% 30.25 in 10.0 mi North 10.4 mph - N/A   Clear
8:15 PM 33.1 °F 25.5 °F 16.3 °F 50% 30.25 in 10.0 mi North 9.2 mph - N/A   Clear
8:35 PM 32.4 °F 26.0 °F 17.1 °F 53% 30.25 in 10.0 mi NNE 6.9 mph - N/A   Clear
8:55 PM 32.2 °F 25.8 °F 16.5 °F 53% 30.26 in 10.0 mi NNE 6.9 mph - N/A   Clear
9:15 PM 32.0 °F 24.8 °F 16.3 °F 52% 30.26 in 10.0 mi NNE 8.1 mph - N/A   Clear
9:35 PM 32.0 °F 26.4 °F 15.6 °F 51% 30.27 in 10.0 mi NNE 5.8 mph - N/A   Clear
9:55 PM 31.6 °F 24.4 °F 14.9 °F 50% 30.27 in 10.0 mi North 8.1 mph - N/A   Clear
10:15 PM 31.1 °F 25.4 °F 15.3 °F 52% 30.28 in 10.0 mi North 5.8 mph - N/A   Clear
10:35 PM 30.9 °F 24.3 °F 15.3 °F 52% 30.29 in 10.0 mi North 6.9 mph - N/A   Clear
10:55 PM 30.9 °F 25.2 °F 15.3 °F 52% 30.28 in 10.0 mi North 5.8 mph - N/A   Clear
11:15 PM 30.6 °F 23.8 °F 15.1 °F 53% 30.29 in 10.0 mi North 6.9 mph - N/A   Clear
11:35 PM 30.4 °F 24.5 °F 15.3 °F 53% 30.30 in 10.0 mi North 5.8 mph - N/A   Clear
11:55 PM 30.0 °F 23.2 °F 15.1 °F 54% 30.30 in 10.0 mi North 6.9 mph - N/A   Clear